EGLC

London City Airport

London, United Kingdom
TAF AMD EGLC 231046Z 2310/2318 34010KT 9999 SCT030 PROB40 TEMPO 2310/2314 33015G25KT 9000 RA BKN012
Issued Valid From Valid To
Sep-23 @ 10:46 UTC
(24 minutes ago)
Sep-23 @ 10:00 UTC
(an hour ago)
Sep-23 @ 18:00 UTC
(in 7 hours)
to
to
TAF AMD EGLC 231046Z 2310/2318 34010KT 9999 SCT030 PROB40 TEMPO 2310/2314 33015G25KT 9000 RA BKN012
Issued Sep-23 @ 10:46 UTC
(24 minutes ago)
Valid From Sep-23 @ 10:00 UTC
(an hour ago)
Valid To Sep-23 @ 18:00 UTC
(in 7 hours)
-
-